Clark, Texas
Current Conditions -  °F | °C
As of 10:13 AM on Friday 21 Nov 2014 (Local Time) from KCXO Reporting Station
Overcast Overcast  
Wind Chill: 18°   Ceiling: 1200
Heat Index: 18°   Visibility: 10mi
Dew Point: 17°   Wind: 9mph
Humidity: 93%   Direction: 140°SE
Pressure: 30.17"   Gusts: NA
Location:  30.2945°N, 94.9711°W
Report Text: KCXO 211613Z 14008KT 10SM BKN012 OVC024 18/17 A3017 RMK AO2 T01780167
Loading
Personal Weather Stations






























Interactive Weather Map New forecast layout! Learn more

10-Day Weather Forecast

Advertisements
Track Severe Weather on mobile